Iaşi, România

11:41 AM EET on februarie 12, 2016 (GMT +0200)
Iasi | | Change Station
CLOSE
Current Station
Aeroport
Location: Iasi,
Elevation: 338 ft
Nearby Weather Stations

Elev 338 ft 47.16 °N, 27.63 °E | Updated 11 minutes ago

Clear
Cer senin
45 °F
Feels Like 42 °F
N
5
Vânt variabil Vânt from ESE

astăzi
High -- | Low -- °F
--% Chance of Precip.
Ieri
High -- | Low -- °F
Precip. -- inch
Presiunea 29.92 inch
Vizibilitatea -9999.0 mile
Nori
Vânt rece 42 °F
Punctul de rouă 28 °F
Umiditatea 53%
Precipitaţii 0.00 inch
Adâncimea zăpezii Not available.
7:20 AM 5:27 PM
Semilună în creştere, 19% visible
METAR LRIA 120930Z 11004KT CAVOK 07/M02 Q1013
Presiunea 29.92 inch
Vizibilitatea -9999.0 mile
Nori
Vânt rece 42 °F
Punctul de rouă 28 °F
Umiditatea 53%
Precipitaţii 0.00 inch
Adâncimea zăpezii Not available.
7:20 AM 5:27 PM
Semilună în creştere, 19% visible
METAR LRIA 120930Z 11004KT CAVOK 07/M02 Q1013

10-Day Weather Forecast

Almanac

Astronomie

Feb. 12, 2016 Răsărit Apus
Timpul Actual
Crepusculul Civil
Crepusculul nautic
Răsărit Astronomic
Luna
Durata zilei lumină
Lungimea zilei
Tomorrow will be .
, % of the Moon is Illuminated

Extremele de azi

Country Highs Country Lows

Community

WunderPhotos

Upload Photos

1,892,286 photos uploaded!

WunderBlog® & News

Nearby

Calitatea aerului

  Calitatea aerului Index de calitate a aerului Poluat
Not available.

Adâncimea zapezii

Station Depth Elevation

Earthquake Activity

Oraş Distance Mag. Time & Date
Minimum magnitude displayed is 2.5.

Coastal Water Temperatures

Locul Temperatura

Stations

Nearby Weather Stations

Locaţia staţiei Temp Vânt rece Punctul de rouă Umiditatea Vânt Precip. Elev Actualizare Type